createdAt,value
2018-03-21T00:01:33.721Z,-1.60
2018-03-21T00:04:01.220Z,-1.60
2018-03-21T00:06:28.720Z,-1.80
2018-03-21T00:08:56.227Z,-1.70
2018-03-21T00:11:23.720Z,-1.70
2018-03-21T00:13:51.201Z,-1.60
2018-03-21T00:16:18.718Z,-1.60
2018-03-21T00:18:46.212Z,-1.70
2018-03-21T00:21:14.472Z,-1.70
2018-03-21T00:23:41.955Z,-1.80
2018-03-21T00:26:10.266Z,-1.80
2018-03-21T00:28:37.755Z,-1.80
2018-03-21T00:31:05.386Z,-1.70
2018-03-21T00:33:32.884Z,-1.70
2018-03-21T00:36:00.366Z,-1.80
2018-03-21T00:38:28.632Z,-2.30
2018-03-21T00:40:56.879Z,-2.30
2018-03-21T00:43:24.419Z,-2.30
2018-03-21T00:45:51.906Z,-2.40
2018-03-21T00:48:19.383Z,-2.60
2018-03-21T00:50:47.668Z,-2.50
2018-03-21T00:53:15.159Z,-2.60
2018-03-21T00:55:42.655Z,-2.50
2018-03-21T00:58:10.148Z,-2.40
2018-03-21T01:00:37.760Z,-2.40
2018-03-21T01:03:05.239Z,-2.40
2018-03-21T01:05:33.492Z,-2.50
2018-03-21T01:08:00.991Z,-2.50
2018-03-21T01:10:28.475Z,-2.50
2018-03-21T01:12:55.979Z,-2.50
2018-03-21T01:15:24.230Z,-2.70
2018-03-21T01:17:52.514Z,-2.70
2018-03-21T01:20:19.982Z,-2.70
2018-03-21T01:22:48.219Z,-2.80
2018-03-21T01:25:15.727Z,-2.80
2018-03-21T01:27:43.231Z,-2.90
2018-03-21T01:30:10.741Z,-2.90
2018-03-21T01:32:38.231Z,-3.00
2018-03-21T01:35:05.745Z,-2.90
2018-03-21T01:37:33.235Z,-2.70
2018-03-21T01:40:00.720Z,-2.70
2018-03-21T01:42:28.227Z,-2.60
2018-03-21T01:44:55.715Z,-2.70
2018-03-21T01:47:23.206Z,-2.50
2018-03-21T01:49:50.691Z,-2.50
2018-03-21T01:52:18.951Z,-2.60
2018-03-21T01:54:47.195Z,-2.70
2018-03-21T01:57:14.693Z,-2.80
2018-03-21T01:59:42.951Z,-2.90
2018-03-21T02:02:11.195Z,-3.00
2018-03-21T02:04:38.691Z,-3.10
2018-03-21T02:07:06.931Z,-3.00
2018-03-21T02:09:34.408Z,-3.10
2018-03-21T02:12:02.672Z,-3.30
2018-03-21T02:14:30.167Z,-3.30
2018-03-21T02:16:57.648Z,-3.40
2018-03-21T02:19:25.135Z,-3.50
2018-03-21T02:21:52.636Z,-3.50
2018-03-21T02:24:20.125Z,-3.50
2018-03-21T02:26:47.631Z,-3.60
2018-03-21T02:29:15.884Z,-3.90
2018-03-21T02:31:43.373Z,-3.90
2018-03-21T02:34:10.877Z,-4.00
2018-03-21T02:36:38.379Z,-3.90
2018-03-21T02:39:05.895Z,-3.80
2018-03-21T02:41:33.381Z,-3.70
2018-03-21T02:44:01.640Z,-3.80
2018-03-21T02:46:29.153Z,-3.90
2018-03-21T02:48:56.636Z,-4.00
2018-03-21T02:51:24.165Z,-4.00
2018-03-21T02:53:51.647Z,-4.00
2018-03-21T02:56:19.137Z,-4.00
2018-03-21T02:58:47.416Z,-3.90
2018-03-21T03:01:15.687Z,-3.90
2018-03-21T03:03:43.955Z,-3.90
2018-03-21T03:06:12.208Z,-3.90
2018-03-21T03:08:39.688Z,-3.90
2018-03-21T03:11:07.959Z,-3.50
2018-03-21T03:13:36.219Z,-3.40
2018-03-21T03:16:03.724Z,-3.50
2018-03-21T03:18:31.215Z,-3.50
2018-03-21T03:20:58.705Z,-3.60
2018-03-21T03:23:26.973Z,-3.60
2018-03-21T03:25:55.223Z,-3.40
2018-03-21T03:28:22.735Z,-3.50
2018-03-21T03:30:50.224Z,-3.30
2018-03-21T03:33:17.762Z,-3.40
2018-03-21T03:35:45.999Z,-3.50
2018-03-21T03:38:14.244Z,-3.50
2018-03-21T03:40:41.748Z,-3.60
2018-03-21T03:43:09.235Z,-3.50
2018-03-21T03:45:36.715Z,-3.60
2018-03-21T03:48:04.215Z,-3.80
2018-03-21T03:50:31.720Z,-3.70
2018-03-21T03:52:59.235Z,-3.70
2018-03-21T03:55:26.727Z,-3.70
2018-03-21T03:57:54.212Z,-3.70
2018-03-21T04:00:23.226Z,-3.50
2018-03-21T04:02:51.481Z,-3.60
2018-03-21T04:05:19.759Z,-3.70
2018-03-21T04:07:48.024Z,-3.60
2018-03-21T04:10:15.538Z,-3.70
2018-03-21T04:12:43.047Z,-3.50
2018-03-21T04:15:10.531Z,-3.60
2018-03-21T04:17:38.043Z,-3.70
2018-03-21T04:20:05.542Z,-3.80
2018-03-21T04:22:33.028Z,-4.10
2018-03-21T04:25:00.531Z,-4.10
2018-03-21T04:27:28.017Z,-4.10
2018-03-21T04:29:55.528Z,-3.90
2018-03-21T04:32:23.020Z,-3.70
2018-03-21T04:34:51.269Z,-3.00
2018-03-21T04:37:18.835Z,-3.00
2018-03-21T04:39:46.319Z,-2.70
2018-03-21T04:42:13.854Z,-2.60
2018-03-21T04:44:42.107Z,-2.40
2018-03-21T04:47:10.649Z,-2.30
2018-03-21T04:49:38.145Z,-2.30
2018-03-21T04:52:05.627Z,-2.10
2018-03-21T04:54:33.905Z,-2.00
2018-03-21T04:57:02.163Z,-2.00
2018-03-21T04:59:29.654Z,-2.00
2018-03-21T05:01:57.175Z,-2.00
2018-03-21T05:04:24.664Z,-1.90
2018-03-21T05:06:52.197Z,-1.90
2018-03-21T05:09:20.439Z,-1.90
2018-03-21T05:11:47.935Z,-1.90
2018-03-21T05:14:16.200Z,-2.10
2018-03-21T05:16:44.456Z,-2.10
2018-03-21T05:19:12.365Z,-2.20
2018-03-21T05:21:39.864Z,-2.10
2018-03-21T05:24:07.347Z,-2.10
2018-03-21T05:26:35.620Z,-2.20
2018-03-21T05:29:03.108Z,-2.20
2018-03-21T05:31:30.592Z,-2.20
2018-03-21T05:33:58.096Z,-2.20
2018-03-21T05:36:26.347Z,-2.20
2018-03-21T05:38:55.356Z,-2.30
2018-03-21T05:41:22.856Z,-2.30
2018-03-21T05:43:50.364Z,-2.20
2018-03-21T05:46:17.852Z,-2.20
2018-03-21T05:48:46.100Z,-2.10
2018-03-21T05:51:14.475Z,-2.10
2018-03-21T05:53:41.963Z,-2.00
2018-03-21T05:56:09.468Z,-2.10
2018-03-21T05:58:36.961Z,-2.10
2018-03-21T06:01:05.212Z,-2.00
2018-03-21T06:03:34.220Z,-2.10
2018-03-21T06:06:02.477Z,-2.00
2018-03-21T06:08:30.810Z,-1.90
2018-03-21T06:10:58.336Z,-2.00
2018-03-21T06:13:25.864Z,-1.90
2018-03-21T06:15:54.160Z,-1.80
2018-03-21T06:18:22.412Z,-1.80
2018-03-21T06:20:49.924Z,-1.80
2018-03-21T06:23:17.420Z,-1.80
2018-03-21T06:25:44.903Z,-1.80
2018-03-21T06:28:13.178Z,-1.60
2018-03-21T06:30:41.494Z,-1.70
2018-03-21T06:33:09.736Z,-1.70
2018-03-21T06:35:37.987Z,-1.60
2018-03-21T06:38:05.527Z,-1.60
2018-03-21T06:40:33.756Z,-1.40
2018-03-21T06:43:01.252Z,-1.40
2018-03-21T06:45:28.755Z,-1.30
2018-03-21T06:47:57.003Z,-1.30
2018-03-21T06:50:24.499Z,-1.30
2018-03-21T06:52:51.999Z,-1.20
2018-03-21T06:55:19.483Z,-1.10
2018-03-21T06:57:47.000Z,-1.10
2018-03-21T07:00:14.480Z,-1.10
2018-03-21T07:02:41.963Z,-1.00
2018-03-21T07:05:10.228Z,-1.10
2018-03-21T07:07:37.724Z,-1.10
2018-03-21T07:10:05.235Z,-1.00
2018-03-21T07:12:33.500Z,-0.80
2018-03-21T07:15:13.484Z,-0.80
2018-03-21T07:17:41.734Z,-0.80
2018-03-21T07:20:09.991Z,-0.70
2018-03-21T07:22:37.492Z,-0.70
2018-03-21T07:25:04.976Z,-0.70
2018-03-21T07:27:32.488Z,-0.70
2018-03-21T07:29:59.987Z,-0.70
2018-03-21T07:32:27.488Z,-0.40
2018-03-21T07:34:55.051Z,-0.40
2018-03-21T07:37:22.531Z,-0.50
2018-03-21T07:39:50.050Z,-0.50
2018-03-21T07:42:17.541Z,-0.30
2018-03-21T07:44:45.025Z,-0.40
2018-03-21T07:47:12.524Z,-0.50
2018-03-21T07:49:40.024Z,-0.60
2018-03-21T07:52:07.523Z,-0.60
2018-03-21T07:54:35.017Z,-0.50
2018-03-21T07:57:03.274Z,-0.30
2018-03-21T07:59:30.779Z,-0.40
2018-03-21T08:01:58.270Z,-0.20
2018-03-21T08:04:25.800Z,-0.10
2018-03-21T08:06:53.280Z,-0.20
2018-03-21T08:09:20.759Z,0.00
2018-03-21T08:11:49.033Z,-0.20
2018-03-21T08:14:16.532Z,-0.20
2018-03-21T08:16:44.060Z,0.00
2018-03-21T08:19:12.307Z,0.10
2018-03-21T08:21:39.791Z,0.10
2018-03-21T08:24:08.071Z,0.20
2018-03-21T08:26:36.328Z,0.50
2018-03-21T08:29:04.606Z,0.70
2018-03-21T08:31:32.863Z,0.70
2018-03-21T08:34:00.344Z,0.70
2018-03-21T08:36:28.611Z,0.60
2018-03-21T08:38:56.865Z,0.70
2018-03-21T08:41:24.383Z,0.60
2018-03-21T08:43:51.871Z,0.70
2018-03-21T08:46:19.376Z,0.50
2018-03-21T08:48:46.872Z,0.60
2018-03-21T08:51:14.351Z,0.60
2018-03-21T08:53:41.851Z,0.40
2018-03-21T08:56:09.331Z,0.40
2018-03-21T08:58:36.827Z,0.30
2018-03-21T09:01:04.328Z,0.40
2018-03-21T09:03:31.808Z,0.30
2018-03-21T09:05:59.363Z,0.30
2018-03-21T09:08:26.862Z,0.40
2018-03-21T09:10:55.113Z,0.60
2018-03-21T09:13:22.619Z,0.60
2018-03-21T09:15:50.099Z,1.00
2018-03-21T09:18:17.655Z,1.30
2018-03-21T09:20:45.883Z,1.10
2018-03-21T09:23:14.140Z,1.30
2018-03-21T09:25:41.672Z,1.30
2018-03-21T09:28:09.170Z,1.30
2018-03-21T09:30:37.452Z,1.50
2018-03-21T09:33:05.702Z,1.70
2018-03-21T09:35:33.189Z,1.70
2018-03-21T09:38:00.876Z,2.00
2018-03-21T09:40:28.364Z,2.00
2018-03-21T09:42:56.172Z,1.80
2018-03-21T09:45:23.664Z,2.10
2018-03-21T09:47:51.151Z,2.10
2018-03-21T09:50:18.658Z,1.70
2018-03-21T09:52:46.165Z,2.10
2018-03-21T09:55:13.673Z,2.30
2018-03-21T09:57:41.165Z,2.20
2018-03-21T10:00:08.648Z,2.00
2018-03-21T10:02:36.918Z,2.30
2018-03-21T10:05:04.869Z,2.20
2018-03-21T10:07:33.883Z,2.70
2018-03-21T10:10:01.368Z,2.80
2018-03-21T10:12:28.848Z,2.30
2018-03-21T10:14:56.393Z,2.00
2018-03-21T10:17:23.875Z,2.30
2018-03-21T10:19:51.447Z,1.90
2018-03-21T10:22:18.902Z,2.20
2018-03-21T10:24:46.412Z,2.50
2018-03-21T10:27:13.912Z,2.70
2018-03-21T10:29:41.411Z,2.70
2018-03-21T10:32:09.678Z,2.60
2018-03-21T10:34:37.958Z,2.40
2018-03-21T10:37:05.424Z,2.40
2018-03-21T10:39:32.924Z,2.00
2018-03-21T10:42:00.400Z,2.10
2018-03-21T10:44:27.915Z,2.50
2018-03-21T10:46:55.388Z,2.50
2018-03-21T10:49:22.875Z,2.60
2018-03-21T10:51:50.374Z,2.50
2018-03-21T10:54:17.856Z,2.40
2018-03-21T10:56:45.332Z,2.60
2018-03-21T10:59:12.826Z,2.60
2018-03-21T11:01:41.071Z,2.70
2018-03-21T11:04:08.576Z,2.70
2018-03-21T11:06:36.833Z,2.70
2018-03-21T11:09:05.095Z,2.80
2018-03-21T11:11:32.618Z,2.80
2018-03-21T11:14:00.108Z,2.90
2018-03-21T11:16:27.587Z,3.20
2018-03-21T11:18:55.863Z,3.60
2018-03-21T11:21:23.348Z,3.60
2018-03-21T11:23:50.831Z,4.00
2018-03-21T11:26:18.635Z,3.90
2018-03-21T11:28:46.876Z,4.50
2018-03-21T11:31:14.355Z,4.40
2018-03-21T11:33:41.860Z,4.60
2018-03-21T11:36:09.532Z,4.70
2018-03-21T11:38:37.015Z,5.50
2018-03-21T11:41:04.523Z,5.70
2018-03-21T11:43:32.855Z,5.40
2018-03-21T11:46:00.267Z,5.30
2018-03-21T11:48:28.564Z,5.20
2018-03-21T11:50:56.036Z,5.10
2018-03-21T11:53:23.508Z,5.30
2018-03-21T11:55:51.007Z,5.40
2018-03-21T11:58:19.404Z,6.10
2018-03-21T12:00:47.644Z,5.80
2018-03-21T12:03:15.143Z,5.80
2018-03-21T12:05:43.383Z,6.80
2018-03-21T12:08:10.859Z,6.80
2018-03-21T12:10:39.130Z,7.10
2018-03-21T12:13:07.391Z,7.40
2018-03-21T12:15:34.887Z,7.40
2018-03-21T12:18:02.375Z,7.20
2018-03-21T12:20:29.859Z,7.00
2018-03-21T12:22:57.351Z,6.50
2018-03-21T12:25:25.604Z,5.90
2018-03-21T12:27:53.128Z,5.90
2018-03-21T12:30:20.600Z,5.90
2018-03-21T12:32:48.089Z,6.70
2018-03-21T12:35:16.352Z,7.70
2018-03-21T12:37:44.627Z,7.40
2018-03-21T12:40:12.168Z,7.30
2018-03-21T12:42:39.690Z,6.70
2018-03-21T12:45:07.163Z,6.40
2018-03-21T12:47:34.664Z,6.90
2018-03-21T12:50:02.935Z,7.10
2018-03-21T12:52:31.200Z,6.90
2018-03-21T12:54:58.673Z,6.90
2018-03-21T12:57:26.915Z,7.10
2018-03-21T12:59:54.407Z,7.10
2018-03-21T13:02:22.661Z,7.20
2018-03-21T13:04:50.156Z,7.20
2018-03-21T13:07:17.631Z,7.20
2018-03-21T13:09:45.103Z,7.00
2018-03-21T13:12:12.601Z,4.60
2018-03-21T13:14:40.856Z,6.60
2018-03-21T13:17:08.368Z,6.60
2018-03-21T13:19:35.847Z,7.20
2018-03-21T13:22:03.328Z,7.00
2018-03-21T13:24:30.824Z,6.40
2018-03-21T13:26:58.300Z,5.90
2018-03-21T13:29:25.816Z,5.80
2018-03-21T13:31:54.052Z,5.50
2018-03-21T13:34:21.544Z,5.50
2018-03-21T13:36:50.224Z,5.60
2018-03-21T13:39:18.491Z,5.70
2018-03-21T13:41:45.989Z,5.60
2018-03-21T13:44:13.476Z,5.90
2018-03-21T13:46:40.973Z,6.60
2018-03-21T13:49:09.232Z,7.40
2018-03-21T13:51:36.720Z,7.40
2018-03-21T13:54:04.232Z,7.30
2018-03-21T13:56:32.475Z,7.20
2018-03-21T13:58:59.961Z,7.20
2018-03-21T14:01:28.220Z,7.40
2018-03-21T14:03:55.712Z,7.40
2018-03-21T14:06:23.287Z,7.30
2018-03-21T14:08:50.763Z,7.10
2018-03-21T14:11:18.239Z,6.30
2018-03-21T14:13:45.746Z,6.60
2018-03-21T14:16:13.234Z,6.80
2018-03-21T14:18:40.735Z,6.80
2018-03-21T14:21:08.208Z,7.30
2018-03-21T14:23:35.722Z,7.50
2018-03-21T14:26:03.216Z,7.50
2018-03-21T14:28:30.736Z,7.90
2018-03-21T14:30:58.243Z,8.00
2018-03-21T14:33:25.717Z,8.20
2018-03-21T14:35:53.208Z,8.10
2018-03-21T14:38:20.697Z,8.00
2018-03-21T14:40:48.944Z,8.00
2018-03-21T14:43:16.439Z,7.90
2018-03-21T14:45:43.917Z,8.00
2018-03-21T14:48:11.391Z,8.10
2018-03-21T14:50:39.010Z,8.50
2018-03-21T14:53:06.495Z,8.20
2018-03-21T14:55:34.006Z,8.30
2018-03-21T14:58:02.252Z,7.40
2018-03-21T15:00:29.724Z,7.40
2018-03-21T15:02:57.216Z,7.20
2018-03-21T15:05:24.692Z,7.10
2018-03-21T15:07:52.195Z,7.30
2018-03-21T15:10:19.668Z,7.90
2018-03-21T15:12:47.915Z,7.90
2018-03-21T15:15:16.920Z,7.90
2018-03-21T15:17:45.171Z,8.00
2018-03-21T15:20:12.667Z,8.00
2018-03-21T15:22:40.907Z,7.30
2018-03-21T15:25:08.397Z,7.30
2018-03-21T15:27:35.892Z,7.30
2018-03-21T15:30:03.368Z,7.20
2018-03-21T15:32:30.864Z,7.10
2018-03-21T15:34:59.106Z,6.70
2018-03-21T15:37:26.577Z,6.70
2018-03-21T15:39:54.836Z,7.20
2018-03-21T15:42:22.311Z,7.20
2018-03-21T15:44:50.582Z,7.70
2018-03-21T15:47:18.057Z,7.70
2018-03-21T15:49:45.547Z,7.70
2018-03-21T15:52:13.045Z,7.70
2018-03-21T15:54:41.288Z,7.40
2018-03-21T15:57:08.792Z,7.40
2018-03-21T15:59:37.063Z,7.10
2018-03-21T16:02:05.306Z,6.90
2018-03-21T16:04:32.796Z,6.90
2018-03-21T16:07:01.053Z,6.80
2018-03-21T16:09:28.566Z,6.70
2018-03-21T16:11:56.038Z,6.60
2018-03-21T16:14:23.520Z,6.60
2018-03-21T16:16:51.030Z,6.60
2018-03-21T16:19:18.528Z,6.60
2018-03-21T16:21:46.039Z,6.70
2018-03-21T16:24:13.523Z,6.70
2018-03-21T16:26:40.996Z,6.60
2018-03-21T16:29:08.487Z,6.60
2018-03-21T16:31:35.973Z,6.60
2018-03-21T16:34:03.491Z,6.50
2018-03-21T16:36:30.975Z,6.50
2018-03-21T16:38:58.455Z,6.60
2018-03-21T16:41:25.951Z,6.30
2018-03-21T16:43:54.200Z,6.20
2018-03-21T16:46:21.704Z,6.20
2018-03-21T16:48:49.179Z,6.10
2018-03-21T16:51:16.651Z,6.00
2018-03-21T16:53:44.148Z,6.10
2018-03-21T16:56:12.419Z,6.10
2018-03-21T16:58:40.664Z,6.10
2018-03-21T17:01:08.140Z,6.10
2018-03-21T17:03:35.694Z,6.10
2018-03-21T17:06:03.160Z,6.00
2018-03-21T17:08:30.667Z,5.90
2018-03-21T17:10:58.154Z,5.80
2018-03-21T17:13:25.631Z,5.80
2018-03-21T17:15:53.128Z,5.70
2018-03-21T17:18:20.600Z,5.70
2018-03-21T17:20:48.111Z,5.70
2018-03-21T17:23:15.591Z,5.70
2018-03-21T17:25:43.241Z,5.70
2018-03-21T17:28:10.806Z,5.70
2018-03-21T17:30:38.307Z,5.60
2018-03-21T17:33:05.804Z,5.60
2018-03-21T17:35:34.083Z,5.40
2018-03-21T17:38:01.559Z,5.40
2018-03-21T17:40:29.041Z,5.30
2018-03-21T17:42:57.356Z,5.20
2018-03-21T17:45:24.881Z,5.20
2018-03-21T17:47:52.484Z,5.20
2018-03-21T17:50:20.012Z,5.20
2018-03-21T17:52:48.252Z,5.00
2018-03-21T17:55:16.045Z,5.00
2018-03-21T17:57:44.288Z,5.00
2018-03-21T18:00:11.768Z,5.00
2018-03-21T18:02:40.039Z,5.10
2018-03-21T18:05:07.519Z,5.00
2018-03-21T18:07:34.996Z,5.00
2018-03-21T18:10:02.492Z,4.90
2018-03-21T18:12:29.968Z,4.80
2018-03-21T18:14:58.215Z,4.60
2018-03-21T18:17:25.716Z,4.60
2018-03-21T18:19:53.956Z,4.50
2018-03-21T18:22:21.456Z,4.40
2018-03-21T18:24:48.943Z,4.50
2018-03-21T18:27:16.419Z,4.40
2018-03-21T18:29:43.934Z,4.30
2018-03-21T18:32:11.412Z,4.20
2018-03-21T18:34:38.890Z,4.20
2018-03-21T18:37:06.404Z,4.20
2018-03-21T18:39:33.875Z,4.10
2018-03-21T18:42:01.700Z,4.10
2018-03-21T18:44:30.035Z,4.10
2018-03-21T18:46:57.507Z,4.00
2018-03-21T18:49:25.945Z,3.90
2018-03-21T18:51:53.432Z,3.80
2018-03-21T18:54:20.932Z,3.70
2018-03-21T18:56:48.403Z,3.60
2018-03-21T18:59:16.652Z,3.60
2018-03-21T19:01:44.924Z,3.50
2018-03-21T19:04:12.407Z,3.40
2018-03-21T19:06:41.493Z,3.40
2018-03-21T19:09:09.054Z,3.30
2018-03-21T19:11:36.563Z,3.10
2018-03-21T19:14:04.087Z,3.00
2018-03-21T19:16:31.682Z,2.90
2018-03-21T19:18:59.413Z,2.70
2018-03-21T19:21:26.981Z,2.50
2018-03-21T19:23:54.533Z,2.50
2018-03-21T19:26:22.035Z,2.60
2018-03-21T19:28:49.511Z,2.60
2018-03-21T19:31:17.004Z,2.50
2018-03-21T19:33:44.477Z,2.40
2018-03-21T19:36:11.952Z,2.30
2018-03-21T19:38:39.485Z,2.40
2018-03-21T19:41:07.749Z,2.30
2018-03-21T19:43:35.294Z,2.30
2018-03-21T19:46:02.810Z,2.30
2018-03-21T19:48:30.342Z,2.30
2018-03-21T19:50:58.604Z,2.30
2018-03-21T19:53:26.080Z,2.30
2018-03-21T19:55:54.416Z,2.30
2018-03-21T19:58:21.912Z,2.30
2018-03-21T20:00:50.168Z,2.10
2018-03-21T20:03:17.695Z,2.10
2018-03-21T20:05:45.179Z,2.00
2018-03-21T20:08:12.701Z,2.10
2018-03-21T20:10:40.180Z,2.10
2018-03-21T20:13:08.422Z,2.10
2018-03-21T20:15:35.939Z,2.00
2018-03-21T20:18:04.184Z,2.10
2018-03-21T20:20:31.679Z,2.10
2018-03-21T20:22:59.924Z,2.10
2018-03-21T20:25:27.395Z,2.10
2018-03-21T20:27:55.685Z,1.80
2018-03-21T20:30:23.911Z,1.70
2018-03-21T20:32:51.417Z,1.60
2018-03-21T20:35:19.664Z,1.60
2018-03-21T20:37:47.143Z,1.50
2018-03-21T20:40:15.409Z,1.50
2018-03-21T20:42:43.656Z,1.60
2018-03-21T20:45:11.189Z,1.60
2018-03-21T20:47:38.665Z,1.60
2018-03-21T20:50:06.148Z,1.50
2018-03-21T20:52:34.395Z,1.60
2018-03-21T20:55:01.899Z,1.60
2018-03-21T20:57:29.372Z,1.70
2018-03-21T20:59:56.848Z,1.70
2018-03-21T21:02:24.348Z,1.60
2018-03-21T21:04:52.596Z,1.70
2018-03-21T21:07:20.088Z,1.60
2018-03-21T21:09:48.369Z,1.60
2018-03-21T21:12:16.642Z,1.60
2018-03-21T21:14:44.128Z,1.50
2018-03-21T21:17:11.605Z,1.50
2018-03-21T21:19:39.115Z,1.40
2018-03-21T21:22:06.594Z,1.30
2018-03-21T21:24:34.075Z,1.20
2018-03-21T21:27:01.569Z,1.10
2018-03-21T21:29:29.827Z,1.30
2018-03-21T21:31:57.435Z,1.20
2018-03-21T21:34:24.926Z,1.20
2018-03-21T21:36:53.986Z,1.00
2018-03-21T21:39:21.483Z,1.00
2018-03-21T21:41:48.971Z,1.00
2018-03-21T21:44:17.256Z,1.00
2018-03-21T21:46:44.736Z,1.00
2018-03-21T21:49:12.215Z,0.90
2018-03-21T21:51:39.716Z,1.00
2018-03-21T21:54:08.008Z,1.10
2018-03-21T21:56:35.512Z,1.10
2018-03-21T21:59:03.000Z,1.30
2018-03-21T22:01:31.247Z,1.10
2018-03-21T22:03:58.745Z,1.10
2018-03-21T22:06:26.230Z,1.00
2018-03-21T22:08:53.739Z,0.90
2018-03-21T22:11:21.994Z,1.20
2018-03-21T22:13:49.468Z,1.20
2018-03-21T22:16:17.756Z,1.10
2018-03-21T22:18:45.240Z,1.10
2018-03-21T22:21:12.759Z,1.10
2018-03-21T22:23:41.007Z,1.00
2018-03-21T22:26:08.488Z,0.90
2018-03-21T22:28:36.795Z,0.90
2018-03-21T22:31:04.280Z,0.90
2018-03-21T22:33:31.775Z,1.10
2018-03-21T22:36:00.015Z,1.10
2018-03-21T22:38:27.511Z,1.10
2018-03-21T22:40:55.780Z,1.10
2018-03-21T22:43:24.025Z,1.20
2018-03-21T22:45:51.540Z,1.20
2018-03-21T22:48:19.019Z,1.30
2018-03-21T22:50:46.495Z,1.30
2018-03-21T22:53:13.995Z,1.30
2018-03-21T22:55:41.471Z,1.30
2018-03-21T22:58:08.983Z,1.30
2018-03-21T23:00:36.466Z,1.50
2018-03-21T23:03:03.996Z,1.60
2018-03-21T23:05:32.260Z,1.80
2018-03-21T23:07:59.747Z,1.70
2018-03-21T23:10:28.008Z,1.80
2018-03-21T23:12:56.255Z,1.90
2018-03-21T23:15:23.749Z,1.80
2018-03-21T23:17:52.021Z,1.90
2018-03-21T23:20:20.276Z,1.90
2018-03-21T23:22:47.804Z,1.90
2018-03-21T23:25:15.845Z,2.00
2018-03-21T23:27:43.323Z,2.00
2018-03-21T23:30:10.819Z,2.00
2018-03-21T23:32:38.308Z,1.90
2018-03-21T23:35:05.783Z,1.90
2018-03-21T23:37:33.300Z,2.00
2018-03-21T23:40:01.549Z,2.10
2018-03-21T23:42:29.056Z,2.10
2018-03-21T23:44:56.585Z,2.10
2018-03-21T23:47:24.832Z,2.10
2018-03-21T23:49:52.336Z,2.10
2018-03-21T23:52:19.816Z,2.10
2018-03-21T23:54:47.469Z,2.20
2018-03-21T23:57:14.967Z,2.30
2018-03-21T23:59:42.485Z,2.30
